Flight Track Log - Related Links

Times and Time Zones

All times are in EDT time to prevent confusion due to time zone crossing. See the SLI536 flight status page for this flight to view local times or setup timezone preferences in your user account.

Time Position Orientation Groundspeed Altitude Reporting Facility
EDT Latitude Longitude Course Direction KTS MPH feet Rate Location/Type
Sun 10:43:00 AM 20.8568 -90.2608 262° West  Level Estimated
Sun 10:44:00 AM 20.8466 -90.3362 262° West  Level Estimated
Sun 10:45:00 AM 20.8327 -90.4393 262° West  Level Estimated
Sun 10:46:00 AM 20.8186 -90.5425 262° West  Level Estimated
Sun 10:47:00 AM 20.8045 -90.6456 262° West  Level Estimated
Sun 10:48:00 AM 20.7904 -90.7487 262° West  Level Estimated
Sun 10:49:00 AM 20.7761 -90.8518 262° West  Level Estimated
Sun 10:50:00 AM 20.7618 -90.9549 262° West  Level Estimated
Sun 10:51:00 AM 20.7475 -91.0580 262° West  Level Estimated
Sun 10:52:00 AM 20.7331 -91.1610 262° West  Level Estimated
Sun 10:53:00 AM 20.7186 -91.2640 261° West  Level Estimated
Sun 10:54:00 AM 20.7041 -91.3670 261° West  Level Estimated
Sun 10:55:00 AM 20.6895 -91.4700 261° West  Level Estimated
Sun 10:56:00 AM 20.6748 -91.5730 261° West  Level Estimated
Sun 10:57:00 AM 20.6601 -91.6759 261° West  Level Estimated
Sun 10:58:00 AM 20.6453 -91.7788 261° West  Level Estimated
Sun 10:59:00 AM 20.6305 -91.8817 261° West  Level Estimated
Sun 11:00:00 AM 20.6156 -91.9846 261° West  Level Estimated
Sun 11:01:00 AM 20.6006 -92.0875 261° West  Level Estimated
Sun 11:02:00 AM 20.5856 -92.1903 261° West  Level Estimated
Sun 11:03:00 AM 20.5705 -92.2931 261° West  Level Estimated
Sun 11:04:00 AM 20.5554 -92.3959 261° West  Level Estimated
Sun 11:05:00 AM 20.5402 -92.4987 261° West  Level Estimated
Sun 11:06:00 AM 20.5249 -92.6015 261° West  Level Estimated
Sun 11:07:00 AM 20.5096 -92.7042 261° West  Level Estimated
Sun 11:08:00 AM 20.4942 -92.8069 261° West  Level Estimated
Sun 11:09:00 AM 20.4787 -92.9096 261° West  Level Estimated
Sun 11:10:00 AM 20.4632 -93.0123 261° West  Level Estimated
Sun 11:11:00 AM 20.4477 -93.1149 261° West  Level Estimated
Sun 11:12:00 AM 20.4320 -93.2176 261° West  Level Estimated
Sun 11:13:00 AM 20.4163 -93.3202 261° West  Level Estimated
Sun 11:14:00 AM 20.4006 -93.4228 261° West  Level Estimated
Sun 11:15:00 AM 20.3848 -93.5253 261° West  Level Estimated
Sun 11:16:00 AM 20.3689 -93.6279 261° West  Level Estimated
Sun 11:17:00 AM 20.3530 -93.7304 261° West  Level Estimated
Sun 11:18:00 AM 20.3370 -93.8329 261° West  Level Estimated
Sun 11:19:00 AM 20.3209 -93.9354 261° West  Level Estimated
Sun 11:20:00 AM 20.3048 -94.0379 261° West  Level Estimated
Sun 11:21:00 AM 20.2887 -94.1403 260° West  Level Estimated
Sun 11:22:00 AM 20.2724 -94.2427 260° West  Level Estimated
Sun 11:23:00 AM 20.2562 -94.3451 260° West  Level Estimated
Sun 11:24:00 AM 20.2398 -94.4475 260° West  Level Estimated
Sun 11:25:00 AM 20.2234 -94.5499 260° West  Level Estimated
Sun 11:26:00 AM 20.2070 -94.6522 260° West  Level Estimated
Sun 11:27:00 AM 20.1904 -94.7545 260° West  Level Estimated
Sun 11:28:00 AM 20.1739 -94.8568 260° West  Level Estimated
Sun 11:29:00 AM 20.1572 -94.9591 260° West  Level Estimated
Sun 11:30:00 AM 20.1405 -95.0613 260° West  Level Estimated
Sun 11:31:00 AM 20.1238 -95.1636 260° West  Level Estimated
Sun 11:32:00 AM 20.1069 -95.2658 260° West  Level Estimated
Sun 11:33:00 AM 20.0901 -95.3680 260° West  Level Estimated
Sun 11:34:00 AM 20.0731 -95.4701 260° West  Level Estimated
Sun 11:35:00 AM 20.0561 -95.5723 260° West  Level Estimated
Sun 11:36:00 AM 20.0391 -95.6744 260° West  Level Estimated
Sun 11:37:00 AM 20.0220 -95.7765 260° West  Level Estimated
Sun 11:38:00 AM 20.0048 -95.8785 260° West  Level Estimated
Sun 11:39:00 AM 19.9876 -95.9806 260° West  Level Estimated
Sun 11:40:00 AM 19.9703 -96.0826 260° West  Level Estimated
Sun 11:41:00 AM 19.9529 -96.1846 260° West  Level Estimated
Sun 11:42:00 AM 19.9356 -96.2866 260° West  Level Estimated
Sun 11:43:00 AM 19.9181 -96.3885 260° West  Level Estimated
Sun 11:44:00 AM 19.9006 -96.4905 260° West  Level Estimated
Sun 11:45:00 AM 19.8830 -96.5924 260° West  Level Estimated
Sun 11:46:00 AM 19.8654 -96.6943 260° West  Level Estimated
Sun 11:47:00 AM 19.8477 -96.7962 260° West  Level Estimated
Sun 11:48:00 AM 19.8299 -96.8980 260° West  Level Estimated
Sun 11:49:00 AM 19.8121 -96.9998 259° West  Level Estimated
Sun 11:50:00 AM 19.7942 -97.1016 259° West  Level Estimated
Sun 11:51:00 AM 19.7763 -97.2034 259° West  Level Estimated
Sun 11:52:00 AM 19.7583 -97.3052 259° West  Level Estimated
Sun 11:53:00 AM 19.7403 -97.4069 259° West  Level Estimated
Sun 11:54:00 AM 19.7222 -97.5086 259° West  Level Estimated
Sun 11:55:00 AM 19.7041 -97.6103 259° West  Level Estimated
Sun 11:56:00 AM 19.6858 -97.7120 259° West  Level Estimated
Sun 11:57:00 AM 19.6676 -97.8136 259° West  Level Estimated
Sun 11:58:00 AM 19.6493 -97.9152 259° West  Level Estimated
Sun 11:59:00 AM 19.6309 -98.0168 259° West  Level Estimated
Sun 12:00:00 PM 19.6124 -98.1184 259° West  Level Estimated
Sun 12:01:00 PM 19.5939 -98.2199 259° West  Level Estimated
Sun 12:02:00 PM 19.5754 -98.3214 259° West  Level Estimated
Sun 12:03:00 PM 19.5568 -98.4229 259° West  Level Estimated
Sun 12:04:00 PM 19.5381 -98.5244 259° West  Level Estimated
Sun 12:05:00 PM 19.5194 -98.6259 259° West  Level Estimated
Sun 12:06:00 PM 19.5006 -98.7273 259° West  Level Estimated
Sun 12:07:00 PM 19.4818 -98.8287 259° West  Level Estimated
Sun 12:08:00 PM 19.4629 -98.9301 259° West  Level Estimated
Sun 12:09:00 PM 19.4439 -99.0314 259° West  Level Estimated
Sun 12:10:00 PM 19.4363 -99.0721 259° West  Level Estimated
Sun 12:11:00 PM 19.4363 -99.0721 43° Northeast  Level Estimated
Sun 12:12:00 PM 19.4363 -99.0721 43° Northeast  Level Estimated
Sun 12:13:00 PM 19.4363 -99.0721 43° Northeast  Level Estimated
Sun 12:14:00 PM 19.4363 -99.0721 43° Northeast  Level Estimated
Sun 12:15:00 PM 19.4363 -99.0721 43° Northeast  Level Estimated
Sun 12:16:00 PM 19.4363 -99.0721 43° Northeast  Level Estimated
Sun 12:17:00 PM 19.4363 -99.0721 43° Northeast  Level Estimated
Sun 12:18:00 PM 19.4363 -99.0721 43° Northeast  Level Estimated
Sun 12:19:00 PM 19.4363 -99.0721 43° Northeast  Level Estimated
Sun 12:20:00 PM 19.4363 -99.0721 43° Northeast  Level Estimated
Sun 12:21:00 PM 19.4363 -99.0721 43° Northeast  Level Estimated
Sun 12:22:00 PM 19.4363 -99.0721 43° Northeast  Level Estimated
Sun 12:23:00 PM 19.4363 -99.0721 43° Northeast  Level Estimated

Login

Don't have an account? Register now (free) for customized features, flight alerts, and more!